createdAt,value
2022-09-07T00:00:03.024Z,14.54
2022-09-07T00:05:02.530Z,14.56
2022-09-07T00:10:03.184Z,14.56
2022-09-07T00:15:02.910Z,14.48
2022-09-07T00:20:02.761Z,14.49
2022-09-07T00:25:02.833Z,14.46
2022-09-07T00:30:03.531Z,14.16
2022-09-07T00:35:03.196Z,14.04
2022-09-07T00:40:03.078Z,14.08
2022-09-07T00:45:02.765Z,14.07
2022-09-07T00:50:02.232Z,14.14
2022-09-07T00:55:04.203Z,14.08
2022-09-07T01:00:02.751Z,14.01
2022-09-07T01:05:05.413Z,13.91
2022-09-07T01:10:02.457Z,13.69
2022-09-07T01:15:02.864Z,13.65
2022-09-07T01:20:02.558Z,13.33
2022-09-07T01:25:03.327Z,13.28
2022-09-07T01:30:02.877Z,13.5
2022-09-07T01:35:02.332Z,13.65
2022-09-07T01:40:03.322Z,13.57
2022-09-07T01:45:03.022Z,13.37
2022-09-07T01:50:02.760Z,13.39
2022-09-07T01:55:03.367Z,13.48
2022-09-07T02:00:03.171Z,13.57
2022-09-07T02:05:02.837Z,13.46
2022-09-07T02:10:02.763Z,13.29
2022-09-07T02:15:02.396Z,13.23
2022-09-07T02:20:03.048Z,13.22
2022-09-07T02:25:02.546Z,13.06
2022-09-07T02:30:02.915Z,13.14
2022-09-07T02:35:02.476Z,13.16
2022-09-07T02:40:03.670Z,13.17
2022-09-07T02:45:02.777Z,13.21
2022-09-07T02:50:02.574Z,13.24
2022-09-07T02:55:04.146Z,13.22
2022-09-07T03:00:02.440Z,13.15
2022-09-07T03:05:03.080Z,13.22
2022-09-07T03:10:02.703Z,13.27
2022-09-07T03:15:02.724Z,13.17
2022-09-07T03:20:02.499Z,13.03
2022-09-07T03:25:03.117Z,12.86
2022-09-07T03:30:02.852Z,12.79
2022-09-07T03:35:02.664Z,12.74
2022-09-07T03:40:03.219Z,12.85
2022-09-07T03:45:02.621Z,12.81
2022-09-07T03:50:02.454Z,12.67
2022-09-07T03:55:04.613Z,12.47
2022-09-07T04:00:02.875Z,12.4
2022-09-07T04:05:02.629Z,12.37
2022-09-07T04:10:03.123Z,12.36
2022-09-07T04:15:02.943Z,12.44
2022-09-07T04:20:02.337Z,12.47
2022-09-07T04:25:02.556Z,12.48
2022-09-07T04:30:03.200Z,12.55
2022-09-07T04:35:02.753Z,12.56
2022-09-07T04:40:02.490Z,12.55
2022-09-07T04:45:03.231Z,12.55
2022-09-07T04:50:02.979Z,12.6
2022-09-07T04:55:04.009Z,12.7
2022-09-07T05:00:02.715Z,12.85
2022-09-07T05:05:02.971Z,12.97
2022-09-07T05:10:03.028Z,13.26
2022-09-07T05:15:02.837Z,13.51
2022-09-07T05:20:02.486Z,13.64
2022-09-07T05:25:02.419Z,13.76
2022-09-07T05:30:03.620Z,14.19
2022-09-07T05:35:02.759Z,14.51
2022-09-07T05:40:02.341Z,15.93
2022-09-07T05:45:03.152Z,16.57
2022-09-07T05:50:02.405Z,17.33
2022-09-07T05:55:31.187Z,17.91
2022-09-07T06:00:02.590Z,17.83
2022-09-07T06:05:03.285Z,17.22
2022-09-07T06:15:03.097Z,18.39
2022-09-07T06:20:02.863Z,16.92
2022-09-07T06:25:02.383Z,16.47
2022-09-07T06:30:03.270Z,16.52
2022-09-07T06:35:02.792Z,16.46
2022-09-07T06:40:02.403Z,16.59
2022-09-07T06:45:02.530Z,18.25
2022-09-07T06:50:02.452Z,18.15
2022-09-07T06:55:04.463Z,18.29
2022-09-07T07:00:02.462Z,18.54
2022-09-07T07:05:03.288Z,18.69
2022-09-07T07:10:03.118Z,19.1
2022-09-07T07:15:02.569Z,18.82
2022-09-07T07:20:02.591Z,19.52
2022-09-07T07:25:02.220Z,18.44
2022-09-07T07:30:03.108Z,18.22
2022-09-07T07:35:02.642Z,18.3
2022-09-07T07:40:19.213Z,18.73
2022-09-07T07:50:33.829Z,21.53
2022-09-07T07:55:44.934Z,20.94
2022-09-07T08:00:02.442Z,21.71
2022-09-07T08:05:03.098Z,22.28
2022-09-07T08:10:02.343Z,22.91
2022-09-07T08:15:03.079Z,21.56
2022-09-07T08:20:02.690Z,21.42
2022-09-07T08:25:02.490Z,21.6
2022-09-07T08:30:03.145Z,22.14
2022-09-07T08:35:02.612Z,22.1
2022-09-07T08:40:03.235Z,22.2
2022-09-07T08:45:02.865Z,22.63
2022-09-07T08:50:02.646Z,23.51
2022-09-07T08:55:04.436Z,23.38
2022-09-07T09:00:02.723Z,22.63
2022-09-07T09:05:18.596Z,22.05
2022-09-07T09:10:02.881Z,22.04
2022-09-07T09:20:02.455Z,21.64
2022-09-07T09:25:03.288Z,21.39
2022-09-07T09:30:02.604Z,21.45
2022-09-07T09:35:02.433Z,21.54
2022-09-07T09:40:03.308Z,21.82
2022-09-07T09:45:02.766Z,21.86
2022-09-07T09:50:03.330Z,22
2022-09-07T09:55:37.072Z,22.41
2022-09-07T10:00:05.668Z,22.56
2022-09-07T10:05:02.956Z,22.53
2022-09-07T10:10:02.489Z,22.79
2022-09-07T10:15:03.374Z,22.86
2022-09-07T10:20:03.287Z,23.75
2022-09-07T10:25:02.730Z,23.16
2022-09-07T10:30:07.147Z,23.31
2022-09-07T10:35:02.926Z,23.26
2022-09-07T10:40:02.696Z,23.23
2022-09-07T10:45:03.134Z,23.01
2022-09-07T10:50:23.794Z,23
2022-09-07T10:55:04.281Z,23.05
2022-09-07T11:00:09.825Z,23.52
2022-09-07T11:05:02.828Z,23.51
2022-09-07T11:10:02.496Z,23.67
2022-09-07T11:15:03.204Z,23.82
2022-09-07T11:20:02.995Z,24.17
2022-09-07T11:25:30.974Z,24.17
2022-09-07T11:30:02.875Z,24.24
2022-09-07T11:35:02.695Z,24.23
2022-09-07T11:40:02.307Z,24.71
2022-09-07T11:45:02.928Z,25.04
2022-09-07T11:50:02.373Z,25.04
2022-09-07T11:55:04.255Z,24.86
2022-09-07T12:00:02.782Z,25.17
2022-09-07T12:05:02.835Z,25.63
2022-09-07T12:10:03.143Z,26.8
2022-09-07T12:15:02.841Z,28.37
2022-09-07T12:20:02.320Z,28.13
2022-09-07T12:25:02.989Z,28.32
2022-09-07T12:30:02.850Z,28.26
2022-09-07T12:35:02.415Z,27.94
2022-09-07T12:40:03.322Z,28.96
2022-09-07T12:45:02.706Z,28.56
2022-09-07T12:50:03.354Z,27.27
2022-09-07T12:55:30.853Z,28.56
2022-09-07T13:00:03.185Z,30.45
2022-09-07T13:05:03.255Z,29.92
2022-09-07T13:10:03.086Z,30.57
2022-09-07T13:15:03.453Z,29.81
2022-09-07T13:20:02.622Z,29.81
2022-09-07T13:25:03.194Z,30.77
2022-09-07T13:30:02.796Z,31.45
2022-09-07T13:35:02.554Z,30.22
2022-09-07T13:40:03.170Z,30.16
2022-09-07T13:45:02.547Z,30.96
2022-09-07T13:50:02.351Z,32.27
2022-09-07T13:55:04.155Z,31.86
2022-09-07T14:00:02.306Z,32.7
2022-09-07T14:05:03.108Z,32.13
2022-09-07T14:10:02.294Z,31.5
2022-09-07T14:15:05.790Z,32.68
2022-09-07T14:20:02.811Z,32.18
2022-09-07T14:25:02.593Z,30.91
2022-09-07T14:30:03.295Z,29.96
2022-09-07T14:35:02.671Z,30.23
2022-09-07T14:40:03.217Z,29.56
2022-09-07T14:45:02.799Z,28.87
2022-09-07T14:50:02.456Z,29.82
2022-09-07T14:55:04.271Z,29.67
2022-09-07T15:00:02.788Z,29.13
2022-09-07T15:05:02.686Z,28.84
2022-09-07T15:10:03.330Z,28.76
2022-09-07T15:15:02.581Z,28.83
2022-09-07T15:20:03.202Z,28.42
2022-09-07T15:25:03.089Z,28.19
2022-09-07T15:30:02.762Z,28.9
2022-09-07T15:35:02.231Z,30.29
2022-09-07T15:40:03.541Z,30.68
2022-09-07T15:45:02.745Z,30
2022-09-07T15:50:02.333Z,27.73
2022-09-07T15:55:04.252Z,26.37
2022-09-07T16:00:02.453Z,25.58
2022-09-07T16:05:03.506Z,24.8
2022-09-07T16:10:02.925Z,24.22
2022-09-07T16:15:02.560Z,24.01
2022-09-07T16:20:03.086Z,23.93
2022-09-07T16:25:02.729Z,24
2022-09-07T16:30:02.309Z,24.23
2022-09-07T16:35:03.087Z,24.35
2022-09-07T16:40:02.666Z,23.78
2022-09-07T16:50:02.680Z,23.26
2022-09-07T16:55:03.777Z,23.04
2022-09-07T17:00:03.025Z,22.8
2022-09-07T17:05:02.705Z,22.87
2022-09-07T17:10:02.349Z,22.7
2022-09-07T17:15:03.230Z,22.45
2022-09-07T17:20:02.871Z,22.22
2022-09-07T17:25:02.371Z,22
2022-09-07T17:30:02.257Z,21.79
2022-09-07T17:35:03.087Z,21.73
2022-09-07T17:40:05.536Z,21.6
2022-09-07T17:45:04.629Z,21.44
2022-09-07T17:50:02.587Z,21.26
2022-09-07T17:55:03.994Z,21.01
2022-09-07T18:00:13.468Z,20.77
2022-09-07T18:05:02.570Z,20.65
2022-09-07T18:10:02.767Z,20.58
2022-09-07T18:15:02.698Z,20.46
2022-09-07T18:20:02.820Z,20.43
2022-09-07T18:25:03.461Z,20.39
2022-09-07T18:30:03.068Z,20.38
2022-09-07T18:35:02.560Z,20.26
2022-09-07T18:40:02.520Z,20.27
2022-09-07T18:45:28.677Z,20.4
2022-09-07T18:50:03.010Z,20.37
2022-09-07T18:55:03.589Z,20.42
2022-09-07T19:00:02.434Z,20.37
2022-09-07T19:10:02.369Z,20.03
2022-09-07T19:15:02.901Z,19.84
2022-09-07T19:20:02.697Z,19.87
2022-09-07T19:25:02.280Z,19.85
2022-09-07T19:30:03.202Z,19.93
2022-09-07T19:35:02.664Z,19.92
2022-09-07T19:40:02.589Z,19.8
2022-09-07T19:45:03.150Z,19.6
2022-09-07T19:50:02.456Z,19.33
2022-09-07T19:55:04.462Z,18.9
2022-09-07T20:00:02.770Z,18.79
2022-09-07T20:05:02.343Z,18.75
2022-09-07T20:10:03.153Z,18.69
2022-09-07T20:15:02.746Z,18.84
2022-09-07T20:20:02.438Z,18.81
2022-09-07T20:25:03.067Z,18.74
2022-09-07T20:30:02.534Z,18.59
2022-09-07T20:35:03.393Z,18.69
2022-09-07T20:40:02.816Z,18.49
2022-09-07T20:45:02.704Z,18.25
2022-09-07T20:50:02.364Z,18.12
2022-09-07T20:55:04.268Z,17.99
2022-09-07T21:00:02.661Z,18.22
2022-09-07T21:05:02.430Z,18.28
2022-09-07T21:10:07.052Z,18.04
2022-09-07T21:15:02.650Z,17.91
2022-09-07T21:20:02.667Z,17.71
2022-09-07T21:25:02.281Z,17.86
2022-09-07T21:30:03.137Z,17.77
2022-09-07T21:35:02.522Z,17.66
2022-09-07T21:40:02.470Z,17.68
2022-09-07T21:45:02.991Z,17.76
2022-09-07T21:50:02.447Z,17.75
2022-09-07T21:55:04.440Z,17.56
2022-09-07T22:00:02.858Z,17.4
2022-09-07T22:05:02.360Z,17.55
2022-09-07T22:10:03.017Z,17.63
2022-09-07T22:15:02.696Z,17.68
2022-09-07T22:20:02.626Z,17.58
2022-09-07T22:25:03.491Z,17.43
2022-09-07T22:30:02.872Z,17.27
2022-09-07T22:35:03.411Z,17.06
2022-09-07T22:40:02.769Z,17.2
2022-09-07T22:45:02.581Z,17.13
2022-09-07T22:50:02.356Z,17.23
2022-09-07T22:55:04.512Z,17.27
2022-09-07T23:00:02.483Z,16.83
2022-09-07T23:05:02.929Z,15.82
2022-09-07T23:10:03.071Z,15.76
2022-09-07T23:15:02.762Z,16.35
2022-09-07T23:20:03.417Z,16.38
2022-09-07T23:25:02.888Z,16.19
2022-09-07T23:30:02.294Z,16.37
2022-09-07T23:35:03.159Z,16.51
2022-09-07T23:40:02.480Z,16.64
2022-09-07T23:45:02.601Z,16.7
2022-09-07T23:50:03.121Z,16.75
2022-09-07T23:55:03.652Z,16.21
